Time;durP1;ratioP1;P1;durP2;ratioP2;P2;SDS_P1;SDS_P2;PMS_P1;PMS_P2;Temp;Humidity;BMP_temperature;BMP_pressure;BME280_temperature;BME280_humidity;BME280_pressure;Samples;Min_cycle;Max_cycle;Signal;HPM_P1;HPM_P2
2023/11/05 00:00:20;;;;;;;5.97;2.07;;;;;;;;;;5061194;28;20701;-58
2023/11/05 00:02:46;;;;;;;3.33;2.00;;;;;;;;;;5061550;28;20732;-58
2023/11/05 00:05:14;;;;;;;5.10;1.90;;;;;;;;;;5061569;28;20188;-57
2023/11/05 00:07:41;;;;;;;4.67;1.80;;;;;;;;;;5066613;28;20291;-58
2023/11/05 00:10:08;;;;;;;3.03;1.97;;;;;;;;;;5057743;28;20655;-58
2023/11/05 00:12:34;;;;;;;3.23;1.83;;;;;;;;;;5062789;28;20189;-57
2023/11/05 00:15:03;;;;;;;4.57;1.90;;;;;;;;;;5063276;28;20644;-58
2023/11/05 00:17:29;;;;;;;2.50;1.60;;;;;;;;;;5061529;28;20193;-57
2023/11/05 00:19:56;;;;;;;5.70;2.07;;;;;;;;;;5059413;28;20215;-58
2023/11/05 00:22:23;;;;;;;2.90;1.60;;;;;;;;;;5059761;28;20204;-58
2023/11/05 00:24:49;;;;;;;3.43;1.90;;;;;;;;;;5059838;28;20267;-57
2023/11/05 00:27:15;;;;;;;3.13;1.90;;;;;;;;;;5056466;28;20597;-57
2023/11/05 00:29:41;;;;;;;3.43;1.73;;;;;;;;;;5058696;28;20661;-57
2023/11/05 00:32:09;;;;;;;5.10;1.97;;;;;;;;;;5062912;28;20877;-58
2023/11/05 00:34:35;;;;;;;5.27;1.93;;;;;;;;;;5062582;28;20189;-57
2023/11/05 00:37:01;;;;;;;6.10;1.87;;;;;;;;;;5063569;28;20276;-58
2023/11/05 00:39:30;;;;;;;3.00;1.77;;;;;;;;;;5061687;28;20181;-57
2023/11/05 00:41:56;;;;;;;2.80;1.80;;;;;;;;;;5060927;28;20196;-58
2023/11/05 00:44:22;;;;;;;5.30;2.10;;;;;;;;;;5063391;28;20264;-58
2023/11/05 00:46:48;;;;;;;2.80;1.50;;;;;;;;;;5064949;28;20279;-57
2023/11/05 00:49:15;;;;;;;2.97;1.80;;;;;;;;;;5059756;28;20226;-58
2023/11/05 00:51:41;;;;;;;3.97;1.90;;;;;;;;;;5060696;28;20195;-58
2023/11/05 00:54:08;;;;;;;6.77;1.90;;;;;;;;;;5061079;28;20188;-58
2023/11/05 00:56:34;;;;;;;5.53;2.23;;;;;;;;;;5063099;28;20590;-58
2023/11/05 00:59:02;;;;;;;2.20;1.60;;;;;;;;;;5062803;28;20584;-57
2023/11/05 01:01:28;;;;;;;4.03;1.70;;;;;;;;;;5061194;28;20283;-57
2023/11/05 01:03:55;;;;;;;6.00;1.97;;;;;;;;;;5059698;28;20180;-57
2023/11/05 01:06:21;;;;;;;2.80;1.70;;;;;;;;;;5059322;28;20181;-58
2023/11/05 01:08:47;;;;;;;5.40;2.40;;;;;;;;;;5058362;28;20661;-58
2023/11/05 01:11:14;;;;;;;4.17;1.80;;;;;;;;;;5079027;28;20507;-58
2023/11/05 01:13:41;;;;;;;2.87;1.60;;;;;;;;;;5062875;28;20176;-58
2023/11/05 01:16:07;;;;;;;2.67;2.10;;;;;;;;;;5059176;28;20207;-58
2023/11/05 01:18:33;;;;;;;3.30;1.70;;;;;;;;;;5058239;28;20186;-57
2023/11/05 01:20:59;;;;;;;2.83;1.77;;;;;;;;;;5063627;28;20303;-57
2023/11/05 01:23:25;;;;;;;4.77;1.93;;;;;;;;;;5061814;28;20277;-56
2023/11/05 01:25:51;;;;;;;3.00;1.83;;;;;;;;;;5062749;28;20511;-57
2023/11/05 01:28:17;;;;;;;4.27;1.87;;;;;;;;;;5063532;28;20601;-56
2023/11/05 01:30:43;;;;;;;5.83;1.67;;;;;;;;;;5057178;28;20503;-57
2023/11/05 01:33:09;;;;;;;3.67;1.70;;;;;;;;;;5044277;28;20227;-56
2023/11/05 01:35:36;;;;;;;4.30;2.20;;;;;;;;;;5044178;28;20508;-56
2023/11/05 01:38:02;;;;;;;3.80;2.00;;;;;;;;;;5046708;28;20311;-55
2023/11/05 01:40:28;;;;;;;5.10;2.10;;;;;;;;;;5040340;28;20632;-56
2023/11/05 01:42:59;;;;;;;3.53;1.80;;;;;;;;;;5058418;28;20180;-55
2023/11/05 01:45:26;;;;;;;3.43;1.70;;;;;;;;;;5060388;28;20722;-56
2023/11/05 01:47:52;;;;;;;6.90;2.00;;;;;;;;;;5062221;28;20211;-56
2023/11/05 01:50:19;;;;;;;7.77;2.03;;;;;;;;;;5051786;28;20192;-56
2023/11/05 01:52:48;;;;;;;7.13;1.93;;;;;;;;;;5061064;28;20701;-55
2023/11/05 01:55:14;;;;;;;5.33;2.00;;;;;;;;;;5062284;28;20184;-56
2023/11/05 01:57:40;;;;;;;3.97;1.60;;;;;;;;;;5061670;28;20261;-56
2023/11/05 02:00:07;;;;;;;4.93;1.90;;;;;;;;;;5062280;28;20223;-56
2023/11/05 02:02:33;;;;;;;8.00;2.33;;;;;;;;;;5059738;28;20181;-56
2023/11/05 02:05:00;;;;;;;6.80;2.03;;;;;;;;;;5063676;28;20721;-56
2023/11/05 02:07:32;;;;;;;3.07;1.60;;;;;;;;;;5059837;28;20177;-56
2023/11/05 02:09:58;;;;;;;2.63;1.90;;;;;;;;;;5059780;28;20284;-56
2023/11/05 02:12:24;;;;;;;4.53;1.90;;;;;;;;;;5062914;28;20191;-56
2023/11/05 02:14:54;;;;;;;3.33;1.70;;;;;;;;;;5061701;28;20185;-56
2023/11/05 02:17:23;;;;;;;4.60;1.93;;;;;;;;;;5060426;28;20195;-56
2023/11/05 02:19:51;;;;;;;3.93;1.87;;;;;;;;;;5062352;28;20626;-56
2023/11/05 02:22:17;;;;;;;2.20;1.50;;;;;;;;;;5065653;28;20184;-56
2023/11/05 02:24:44;;;;;;;4.27;1.80;;;;;;;;;;5061654;28;20180;-56
2023/11/05 02:27:10;;;;;;;5.53;1.83;;;;;;;;;;5067199;28;20604;-56
2023/11/05 02:29:36;;;;;;;6.17;2.10;;;;;;;;;;5063315;28;20173;-56
2023/11/05 02:32:05;;;;;;;2.80;1.90;;;;;;;;;;5069177;28;20208;-56
2023/11/05 02:34:32;;;;;;;4.73;2.00;;;;;;;;;;5061215;28;20246;-56
2023/11/05 02:36:58;;;;;;;4.10;1.97;;;;;;;;;;5078854;28;20722;-56
2023/11/05 02:39:25;;;;;;;4.47;1.93;;;;;;;;;;5064383;28;20588;-56
2023/11/05 02:41:55;;;;;;;8.53;2.57;;;;;;;;;;5062323;28;20173;-56
2023/11/05 02:44:21;;;;;;;5.20;1.73;;;;;;;;;;5062724;28;20272;-56
2023/11/05 02:46:47;;;;;;;4.80;1.73;;;;;;;;;;5066767;28;20671;-56
2023/11/05 02:49:14;;;;;;;3.37;1.50;;;;;;;;;;5054625;28;20221;-56
2023/11/05 02:51:40;;;;;;;4.03;1.80;;;;;;;;;;5059413;28;20191;-56
2023/11/05 02:54:06;;;;;;;2.50;1.70;;;;;;;;;;5065389;28;20187;-55
2023/11/05 02:56:35;;;;;;;4.27;1.80;;;;;;;;;;5064784;28;20294;-56
2023/11/05 02:59:02;;;;;;;4.77;2.50;;;;;;;;;;5061765;28;20245;-54
2023/11/05 03:01:30;;;;;;;4.00;1.67;;;;;;;;;;5059380;28;20230;-54
2023/11/05 03:03:56;;;;;;;3.10;1.80;;;;;;;;;;5065575;28;20183;-54
2023/11/05 03:06:22;;;;;;;6.77;2.00;;;;;;;;;;5062877;28;20255;-55
2023/11/05 03:08:49;;;;;;;7.43;1.87;;;;;;;;;;5063551;28;20197;-54
2023/11/05 03:11:15;;;;;;;4.23;1.83;;;;;;;;;;5066487;28;20181;-56
2023/11/05 03:13:41;;;;;;;3.37;1.57;;;;;;;;;;5067991;28;20503;-55
2023/11/05 03:16:11;;;;;;;4.60;1.80;;;;;;;;;;5063909;28;20556;-55
2023/11/05 03:18:38;;;;;;;4.00;1.80;;;;;;;;;;5062896;28;20470;-54
2023/11/05 03:21:04;;;;;;;4.50;2.20;;;;;;;;;;5064819;28;20246;-55
2023/11/05 03:23:30;;;;;;;6.93;2.23;;;;;;;;;;5062504;28;20181;-56
2023/11/05 03:25:56;;;;;;;3.80;2.13;;;;;;;;;;5064029;28;20208;-55
2023/11/05 03:28:23;;;;;;;4.87;2.10;;;;;;;;;;5066193;28;20536;-55
2023/11/05 03:30:49;;;;;;;4.70;2.63;;;;;;;;;;5061313;28;20243;-55
2023/11/05 03:33:15;;;;;;;4.77;2.10;;;;;;;;;;5060402;28;20606;-55
2023/11/05 03:35:41;;;;;;;2.83;1.50;;;;;;;;;;5065507;28;20755;-55
2023/11/05 03:38:07;;;;;;;2.63;1.40;;;;;;;;;;5064954;28;20188;-57
2023/11/05 03:40:33;;;;;;;3.63;1.80;;;;;;;;;;5063279;28;20325;-55
2023/11/05 03:42:59;;;;;;;3.63;1.53;;;;;;;;;;5060953;28;20192;-57
2023/11/05 03:45:25;;;;;;;3.03;1.60;;;;;;;;;;5063728;28;20362;-56
2023/11/05 03:47:51;;;;;;;1.87;1.47;;;;;;;;;;5063172;28;20554;-56
2023/11/05 03:50:18;;;;;;;2.60;1.80;;;;;;;;;;5065611;28;20576;-56
2023/11/05 03:52:44;;;;;;;3.47;1.60;;;;;;;;;;5058879;28;20596;-55
2023/11/05 03:55:10;;;;;;;4.57;1.90;;;;;;;;;;5059438;28;20267;-55
2023/11/05 03:57:36;;;;;;;4.33;2.10;;;;;;;;;;5060529;28;20216;-56
2023/11/05 04:00:03;;;;;;;2.87;1.63;;;;;;;;;;5063471;28;20714;-57
2023/11/05 04:02:29;;;;;;;4.30;1.60;;;;;;;;;;5064693;28;20600;-55
2023/11/05 04:04:56;;;;;;;2.53;1.50;;;;;;;;;;5062404;28;20204;-57
2023/11/05 04:07:22;;;;;;;3.37;1.60;;;;;;;;;;5058597;28;20184;-57
2023/11/05 04:09:49;;;;;;;3.13;1.97;;;;;;;;;;5059677;28;20192;-57
2023/11/05 04:12:15;;;;;;;2.50;1.70;;;;;;;;;;5061692;28;20181;-57
2023/11/05 04:14:41;;;;;;;2.40;1.63;;;;;;;;;;5062417;28;20609;-57
2023/11/05 04:17:07;;;;;;;4.33;2.87;;;;;;;;;;5067101;28;20192;-57
2023/11/05 04:19:34;;;;;;;2.70;1.77;;;;;;;;;;5059244;28;20604;-57
2023/11/05 04:22:00;;;;;;;2.53;1.47;;;;;;;;;;5055300;28;20192;-57
2023/11/05 04:24:26;;;;;;;2.30;1.20;;;;;;;;;;5053417;28;20267;-57
2023/11/05 04:26:52;;;;;;;2.63;1.50;;;;;;;;;;5061774;28;20202;-57
2023/11/05 04:29:19;;;;;;;2.43;2.00;;;;;;;;;;5057012;28;20195;-57
2023/11/05 04:31:45;;;;;;;3.13;2.87;;;;;;;;;;5062470;28;20609;-58
2023/11/05 04:34:11;;;;;;;6.77;1.90;;;;;;;;;;5073146;28;20559;-57
2023/11/05 04:36:40;;;;;;;3.50;1.83;;;;;;;;;;5059727;28;20232;-57
2023/11/05 04:39:08;;;;;;;3.07;1.80;;;;;;;;;;5062861;28;20205;-57
2023/11/05 04:41:35;;;;;;;2.80;1.50;;;;;;;;;;5064574;28;20197;-57
2023/11/05 04:44:01;;;;;;;3.93;1.70;;;;;;;;;;5076093;28;20183;-57
2023/11/05 04:46:27;;;;;;;2.17;1.30;;;;;;;;;;5062530;28;20192;-58
2023/11/05 04:48:53;;;;;;;3.13;1.60;;;;;;;;;;5055954;28;20276;-57
2023/11/05 04:51:19;;;;;;;1.33;1.23;;;;;;;;;;5056815;28;20191;-57
2023/11/05 04:53:46;;;;;;;2.03;1.73;;;;;;;;;;5062457;28;20308;-58
2023/11/05 04:56:16;;;;;;;2.77;1.23;;;;;;;;;;5060983;28;20259;-58
2023/11/05 04:58:42;;;;;;;1.83;1.20;;;;;;;;;;5059062;28;20196;-58
2023/11/05 05:01:08;;;;;;;1.97;1.37;;;;;;;;;;5057429;28;20215;-57
2023/11/05 05:03:34;;;;;;;4.57;1.43;;;;;;;;;;5057734;28;20180;-58
2023/11/05 05:06:00;;;;;;;3.27;1.60;;;;;;;;;;5059279;28;20280;-59
2023/11/05 05:08:26;;;;;;;3.63;1.60;;;;;;;;;;5066115;28;20254;-59
2023/11/05 05:10:53;;;;;;;3.73;1.73;;;;;;;;;;5075016;28;20249;-58
2023/11/05 05:13:19;;;;;;;2.80;1.30;;;;;;;;;;5063888;28;20620;-58
2023/11/05 05:15:45;;;;;;;2.70;1.67;;;;;;;;;;5062946;28;20183;-58
2023/11/05 05:18:11;;;;;;;2.30;1.40;;;;;;;;;;5062478;28;20188;-58
2023/11/05 05:20:37;;;;;;;3.43;1.33;;;;;;;;;;5063021;28;20228;-57
2023/11/05 05:23:04;;;;;;;2.80;1.57;;;;;;;;;;5057851;28;20632;-58
2023/11/05 05:25:30;;;;;;;3.10;1.40;;;;;;;;;;5063167;28;20176;-58
2023/11/05 05:27:56;;;;;;;1.37;1.10;;;;;;;;;;5057817;28;20627;-58
2023/11/05 05:30:22;;;;;;;2.57;1.40;;;;;;;;;;5061888;28;20192;-58
2023/11/05 05:32:49;;;;;;;4.23;1.67;;;;;;;;;;5060761;28;20228;-58
2023/11/05 05:35:15;;;;;;;2.77;1.50;;;;;;;;;;5059449;28;20201;-58
2023/11/05 05:37:41;;;;;;;1.33;1.20;;;;;;;;;;5056401;28;20179;-58
2023/11/05 05:40:08;;;;;;;1.77;1.20;;;;;;;;;;5057373;28;20205;-58
2023/11/05 05:42:34;;;;;;;2.37;1.27;;;;;;;;;;5058583;28;20173;-59
2023/11/05 05:45:03;;;;;;;1.43;1.23;;;;;;;;;;5061788;28;20536;-58
2023/11/05 05:47:30;;;;;;;2.90;1.30;;;;;;;;;;5065898;28;20628;-58
2023/11/05 05:49:57;;;;;;;1.93;1.30;;;;;;;;;;5059207;28;20211;-58
2023/11/05 05:52:23;;;;;;;2.57;1.27;;;;;;;;;;5063062;28;20188;-58
2023/11/05 05:54:49;;;;;;;1.50;0.97;;;;;;;;;;5062524;28;20286;-57
2023/11/05 05:57:15;;;;;;;1.30;1.20;;;;;;;;;;5066232;28;20185;-58
2023/11/05 05:59:42;;;;;;;1.67;1.40;;;;;;;;;;5067091;28;20184;-59
2023/11/05 06:02:11;;;;;;;1.10;1.10;;;;;;;;;;5061286;28;20809;-59
2023/11/05 06:04:37;;;;;;;3.20;1.73;;;;;;;;;;5053565;28;20184;-58
2023/11/05 06:07:08;;;;;;;1.80;1.00;;;;;;;;;;5062018;28;20611;-58
2023/11/05 06:09:34;;;;;;;2.50;1.20;;;;;;;;;;5065444;28;20188;-58
2023/11/05 06:12:00;;;;;;;1.77;1.20;;;;;;;;;;5066388;28;20255;-57
2023/11/05 06:14:26;;;;;;;1.30;1.20;;;;;;;;;;5068048;28;20214;-58
2023/11/05 06:16:53;;;;;;;1.87;1.13;;;;;;;;;;5063085;28;21310;-58
2023/11/05 06:19:19;;;;;;;1.53;1.43;;;;;;;;;;5059997;28;20280;-57
2023/11/05 06:21:48;;;;;;;1.33;1.20;;;;;;;;;;5060162;28;20557;-58
2023/11/05 06:24:15;;;;;;;1.97;1.30;;;;;;;;;;5063237;28;20263;-56
2023/11/05 06:26:44;;;;;;;2.23;1.30;;;;;;;;;;5065931;28;20181;-55
2023/11/05 06:29:10;;;;;;;1.40;0.93;;;;;;;;;;5062624;28;20180;-56
2023/11/05 06:31:36;;;;;;;1.03;1.03;;;;;;;;;;5058433;28;20302;-56
2023/11/05 06:34:02;;;;;;;1.00;1.00;;;;;;;;;;5065517;28;20278;-56
2023/11/05 06:36:30;;;;;;;2.00;1.03;;;;;;;;;;5065304;28;20168;-57
2023/11/05 06:38:56;;;;;;;1.50;1.07;;;;;;;;;;5066251;28;20271;-56
2023/11/05 06:41:25;;;;;;;0.87;0.87;;;;;;;;;;5066810;28;20211;-56
2023/11/05 06:43:51;;;;;;;1.30;1.20;;;;;;;;;;5061957;28;20187;-57
2023/11/05 06:46:17;;;;;;;1.50;1.10;;;;;;;;;;5060878;28;20220;-56
2023/11/05 06:48:44;;;;;;;1.33;0.97;;;;;;;;;;5063815;28;20177;-56
2023/11/05 06:51:10;;;;;;;1.60;0.90;;;;;;;;;;5062429;28;20180;-57
2023/11/05 06:53:36;;;;;;;0.90;0.90;;;;;;;;;;5063091;28;20210;-56
2023/11/05 06:56:03;;;;;;;1.07;1.07;;;;;;;;;;5059462;28;20200;-56
2023/11/05 06:58:30;;;;;;;0.70;0.70;;;;;;;;;;5063615;28;20595;-58
2023/11/05 07:00:56;;;;;;;1.10;1.00;;;;;;;;;;5059850;28;20281;-56
2023/11/05 07:03:23;;;;;;;0.90;0.90;;;;;;;;;;5060145;28;20211;-56
2023/11/05 07:05:49;;;;;;;1.17;1.07;;;;;;;;;;5062353;28;20921;-57
2023/11/05 07:08:16;;;;;;;0.80;0.80;;;;;;;;;;5067017;28;20187;-56
2023/11/05 07:10:42;;;;;;;1.67;1.20;;;;;;;;;;5059112;28;20281;-56
2023/11/05 07:13:09;;;;;;;0.70;0.70;;;;;;;;;;5059970;28;20185;-56
2023/11/05 07:15:35;;;;;;;0.90;0.90;;;;;;;;;;5059462;28;20268;-56
2023/11/05 07:18:01;;;;;;;0.80;0.80;;;;;;;;;;5061732;28;20195;-57
2023/11/05 07:20:27;;;;;;;0.90;0.90;;;;;;;;;;5064280;28;20231;-56
2023/11/05 07:22:54;;;;;;;0.90;0.80;;;;;;;;;;5060715;28;20543;-56
2023/11/05 07:25:20;;;;;;;0.73;0.73;;;;;;;;;;5063798;28;20971;-57
2023/11/05 07:27:47;;;;;;;0.80;0.80;;;;;;;;;;5064358;28;20180;-56
2023/11/05 07:30:15;;;;;;;2.83;1.20;;;;;;;;;;5062881;28;20252;-57
2023/11/05 07:32:41;;;;;;;0.83;0.83;;;;;;;;;;5064616;28;20228;-57
2023/11/05 07:35:08;;;;;;;1.10;1.00;;;;;;;;;;5058924;28;20652;-58
2023/11/05 07:37:34;;;;;;;0.83;0.83;;;;;;;;;;5064817;28;20185;-58
2023/11/05 07:40:00;;;;;;;1.73;1.00;;;;;;;;;;5064793;28;20275;-58
2023/11/05 07:42:26;;;;;;;1.00;1.00;;;;;;;;;;5062814;28;20176;-58
2023/11/05 07:44:53;;;;;;;1.10;0.90;;;;;;;;;;5064559;28;20248;-57
2023/11/05 07:47:19;;;;;;;1.20;1.10;;;;;;;;;;5062343;28;20172;-58
2023/11/05 07:49:45;;;;;;;1.93;1.27;;;;;;;;;;5059912;28;20204;-58
2023/11/05 07:52:11;;;;;;;1.33;1.00;;;;;;;;;;5062886;28;20176;-58
2023/11/05 07:54:38;;;;;;;1.20;0.97;;;;;;;;;;5062434;28;20223;-57
2023/11/05 07:57:04;;;;;;;1.23;1.13;;;;;;;;;;5061097;28;20244;-59
2023/11/05 07:59:30;;;;;;;1.43;1.20;;;;;;;;;;5059902;28;20201;-58
2023/11/05 08:02:00;;;;;;;1.10;0.90;;;;;;;;;;5056349;28;20211;-58
2023/11/05 08:04:26;;;;;;;1.03;1.00;;;;;;;;;;5058456;28;20232;-58
2023/11/05 08:06:54;;;;;;;1.27;0.80;;;;;;;;;;5063580;28;20632;-58
2023/11/05 08:09:21;;;;;;;1.00;0.90;;;;;;;;;;5060845;28;20913;-58
2023/11/05 08:11:49;;;;;;;1.23;1.07;;;;;;;;;;5062949;28;20588;-58
2023/11/05 08:14:16;;;;;;;0.77;0.77;;;;;;;;;;5061874;28;20743;-58
2023/11/05 08:16:42;;;;;;;4.83;0.80;;;;;;;;;;5061557;28;20250;-57
2023/11/05 08:19:09;;;;;;;0.90;0.90;;;;;;;;;;5059331;28;20181;-58
2023/11/05 08:21:35;;;;;;;1.20;0.90;;;;;;;;;;5057058;28;20201;-58
2023/11/05 08:24:02;;;;;;;0.60;0.60;;;;;;;;;;5064804;28;20260;-58
2023/11/05 08:26:28;;;;;;;0.80;0.80;;;;;;;;;;5062504;28;20184;-58
2023/11/05 08:28:54;;;;;;;1.23;0.83;;;;;;;;;;5060100;28;20290;-58
2023/11/05 08:31:21;;;;;;;0.80;0.80;;;;;;;;;;5060909;28;20181;-58
2023/11/05 08:33:47;;;;;;;0.80;0.80;;;;;;;;;;5062298;28;20250;-58
2023/11/05 08:36:17;;;;;;;2.40;0.77;;;;;;;;;;5064905;28;20207;-58
2023/11/05 08:38:44;;;;;;;2.43;0.93;;;;;;;;;;5063200;28;20202;-58
2023/11/05 08:41:12;;;;;;;0.83;0.80;;;;;;;;;;5063534;28;20688;-58
2023/11/05 08:43:39;;;;;;;1.17;1.07;;;;;;;;;;5059083;28;20176;-58
2023/11/05 08:46:05;;;;;;;0.87;0.80;;;;;;;;;;5063345;28;20173;-58
2023/11/05 08:48:32;;;;;;;1.97;1.10;;;;;;;;;;5062163;28;20189;-57
2023/11/05 08:50:58;;;;;;;0.80;0.80;;;;;;;;;;5062984;28;20271;-58
2023/11/05 08:53:24;;;;;;;2.17;1.10;;;;;;;;;;5063806;28;20184;-59
2023/11/05 08:55:51;;;;;;;1.30;0.83;;;;;;;;;;5063316;28;20673;-58
2023/11/05 08:58:18;;;;;;;0.97;0.97;;;;;;;;;;5061328;28;20223;-57
2023/11/05 09:00:44;;;;;;;1.17;1.10;;;;;;;;;;5060582;28;20244;-58
2023/11/05 09:03:14;;;;;;;2.93;1.30;;;;;;;;;;5057458;28;20188;-58
2023/11/05 09:05:40;;;;;;;0.97;0.87;;;;;;;;;;5061884;28;20177;-58
2023/11/05 09:08:08;;;;;;;2.07;1.10;;;;;;;;;;5061937;28;20208;-58
2023/11/05 09:10:35;;;;;;;1.03;1.00;;;;;;;;;;5059578;28;20183;-58
2023/11/05 09:13:02;;;;;;;1.03;1.00;;;;;;;;;;5060772;28;20188;-57
2023/11/05 09:15:28;;;;;;;2.80;1.33;;;;;;;;;;5060606;28;21601;-58
2023/11/05 09:17:55;;;;;;;1.63;1.00;;;;;;;;;;5063604;28;20676;-58
2023/11/05 09:20:21;;;;;;;1.70;1.33;;;;;;;;;;5063467;28;20218;-58
2023/11/05 09:22:51;;;;;;;1.47;1.10;;;;;;;;;;5056008;28;20313;-58
2023/11/05 09:25:18;;;;;;;0.80;0.80;;;;;;;;;;5055324;28;20315;-59
2023/11/05 09:27:44;;;;;;;0.90;0.90;;;;;;;;;;5059399;28;20636;-56
2023/11/05 09:30:14;;;;;;;1.43;1.07;;;;;;;;;;5060605;28;20180;-56
2023/11/05 09:32:45;;;;;;;1.33;0.90;;;;;;;;;;5054881;28;20646;-58
2023/11/05 09:35:13;;;;;;;2.00;1.00;;;;;;;;;;5062541;28;20172;-56
2023/11/05 09:37:40;;;;;;;2.03;1.20;;;;;;;;;;5059843;28;20226;-56
2023/11/05 09:40:08;;;;;;;1.37;1.10;;;;;;;;;;5062755;28;20196;-56
2023/11/05 09:42:34;;;;;;;1.20;1.10;;;;;;;;;;5062296;28;20179;-55
2023/11/05 09:45:04;;;;;;;1.83;1.10;;;;;;;;;;5058924;28;20617;-56
2023/11/05 09:47:32;;;;;;;2.50;1.67;;;;;;;;;;5055826;28;20214;-57
2023/11/05 09:49:59;;;;;;;2.97;1.53;;;;;;;;;;5057145;28;20296;-57
2023/11/05 09:52:28;;;;;;;2.70;1.70;;;;;;;;;;5057343;28;20177;-58
2023/11/05 09:54:55;;;;;;;2.23;1.63;;;;;;;;;;5057153;28;20222;-58
2023/11/05 09:57:21;;;;;;;2.10;1.90;;;;;;;;;;5065448;28;20176;-57
2023/11/05 09:59:48;;;;;;;2.63;2.20;;;;;;;;;;5059088;28;20303;-57
2023/11/05 10:02:15;;;;;;;1.77;1.67;;;;;;;;;;5061042;28;20316;-58
2023/11/05 10:04:41;;;;;;;2.13;1.70;;;;;;;;;;5057928;28;20172;-57
2023/11/05 10:07:08;;;;;;;1.80;1.70;;;;;;;;;;5060185;28;20186;-55
2023/11/05 10:09:34;;;;;;;2.80;2.13;;;;;;;;;;5061669;28;20192;-56
2023/11/05 10:12:02;;;;;;;2.93;1.77;;;;;;;;;;5059669;28;20668;-57
2023/11/05 10:14:29;;;;;;;1.83;1.40;;;;;;;;;;5059517;28;20593;-56
2023/11/05 10:16:56;;;;;;;2.10;1.60;;;;;;;;;;5063656;28;20647;-57
2023/11/05 10:19:22;;;;;;;2.23;2.00;;;;;;;;;;5057899;28;20626;-57
2023/11/05 10:21:48;;;;;;;1.97;1.40;;;;;;;;;;5056596;28;20328;-58
2023/11/05 10:24:15;;;;;;;1.70;1.60;;;;;;;;;;5058563;28;20171;-57
2023/11/05 10:26:41;;;;;;;1.60;1.50;;;;;;;;;;5069931;28;20169;-57
2023/11/05 10:29:08;;;;;;;2.97;1.43;;;;;;;;;;5055031;28;20469;-57
2023/11/05 10:31:35;;;;;;;1.60;1.50;;;;;;;;;;5058523;28;20181;-57
2023/11/05 10:34:03;;;;;;;3.13;1.80;;;;;;;;;;5053618;28;20545;-58
2023/11/05 10:36:31;;;;;;;2.03;1.83;;;;;;;;;;5060702;28;20268;-58
2023/11/05 10:38:59;;;;;;;2.77;2.00;;;;;;;;;;5066066;28;20177;-57
2023/11/05 10:41:26;;;;;;;3.70;2.33;;;;;;;;;;5062487;28;20242;-58
2023/11/05 10:43:53;;;;;;;2.83;2.00;;;;;;;;;;5061591;28;20644;-57
2023/11/05 10:46:22;;;;;;;3.57;1.87;;;;;;;;;;5064121;28;20302;-57
2023/11/05 10:48:49;;;;;;;2.97;2.20;;;;;;;;;;5063513;28;20187;-58
2023/11/05 10:51:17;;;;;;;2.30;2.10;;;;;;;;;;5062141;28;20560;-57
2023/11/05 10:53:44;;;;;;;2.73;2.37;;;;;;;;;;5062067;28;20721;-58
2023/11/05 10:56:26;;;;;;;2.00;1.80;;;;;;;;;;5062402;28;20177;-57
2023/11/05 10:58:54;;;;;;;3.53;2.20;;;;;;;;;;5064229;28;20208;-57
2023/11/05 11:01:21;;;;;;;2.47;1.97;;;;;;;;;;5059688;28;20239;-58
2023/11/05 11:03:48;;;;;;;2.60;2.03;;;;;;;;;;5063882;28;20687;-58
2023/11/05 11:06:15;;;;;;;5.33;2.73;;;;;;;;;;5066158;28;20186;-57
2023/11/05 11:08:56;;;;;;;2.30;2.10;;;;;;;;;;5058747;28;20283;-58
2023/11/05 11:11:23;;;;;;;2.57;2.37;;;;;;;;;;5057338;28;20289;-58
2023/11/05 11:13:55;;;;;;;3.57;2.20;;;;;;;;;;5063485;28;20729;-58
2023/11/05 11:16:31;;;;;;;2.20;2.00;;;;;;;;;;5062399;28;20229;-58
2023/11/05 11:18:59;;;;;;;3.13;2.13;;;;;;;;;;5060398;28;20449;-58
2023/11/05 11:21:26;;;;;;;2.97;1.90;;;;;;;;;;5059207;28;20569;-58
2023/11/05 11:23:53;;;;;;;2.10;1.90;;;;;;;;;;5062831;28;20177;-58
2023/11/05 11:26:27;;;;;;;3.13;2.20;;;;;;;;;;5057979;28;20275;-58
2023/11/05 11:28:55;;;;;;;3.53;2.20;;;;;;;;;;5066640;28;20656;-58
2023/11/05 11:31:21;;;;;;;3.73;2.23;;;;;;;;;;5060772;28;20598;-58
2023/11/05 11:33:48;;;;;;;2.40;2.20;;;;;;;;;;5065497;28;20730;-58
2023/11/05 11:36:15;;;;;;;2.53;1.97;;;;;;;;;;5061695;28;20185;-58
2023/11/05 11:38:43;;;;;;;4.20;1.90;;;;;;;;;;5063632;28;20170;-58
2023/11/05 11:41:10;;;;;;;3.07;1.90;;;;;;;;;;5058871;28;20210;-59
2023/11/05 11:43:37;;;;;;;2.50;1.80;;;;;;;;;;5062553;28;20618;-58
2023/11/05 11:46:05;;;;;;;3.53;1.93;;;;;;;;;;5061957;28;20681;-58
2023/11/05 11:48:32;;;;;;;2.73;2.00;;;;;;;;;;5063852;28;20172;-57
2023/11/05 11:51:01;;;;;;;3.58;2.25;;;;;;;;;;5062162;28;20457;-58
2023/11/05 11:53:29;;;;;;;2.27;2.07;;;;;;;;;;5059750;28;20197;-59
2023/11/05 11:55:55;;;;;;;3.00;2.30;;;;;;;;;;5060987;28;20174;-59
2023/11/05 11:58:24;;;;;;;2.73;2.20;;;;;;;;;;5061068;28;20252;-58
2023/11/05 12:00:51;;;;;;;4.03;2.20;;;;;;;;;;5057042;28;20565;-58
2023/11/05 12:03:17;;;;;;;1.90;1.63;;;;;;;;;;5059934;28;20181;-60
2023/11/05 12:05:44;;;;;;;3.20;2.00;;;;;;;;;;5059953;28;20180;-58
2023/11/05 12:08:11;;;;;;;2.00;1.80;;;;;;;;;;5059693;28;20179;-59
2023/11/05 12:10:38;;;;;;;2.83;1.60;;;;;;;;;;5062317;28;20180;-59
2023/11/05 12:13:04;;;;;;;2.27;1.60;;;;;;;;;;5062241;28;20178;-58
2023/11/05 12:15:31;;;;;;;4.07;1.97;;;;;;;;;;5061641;28;20267;-55
2023/11/05 12:17:58;;;;;;;4.73;2.80;;;;;;;;;;5060610;28;20180;-56
2023/11/05 12:20:24;;;;;;;2.77;2.37;;;;;;;;;;5057726;28;20192;-56
2023/11/05 12:22:52;;;;;;;3.03;2.10;;;;;;;;;;5057526;28;20181;-56
2023/11/05 12:25:18;;;;;;;3.63;2.57;;;;;;;;;;5062685;28;20757;-56
2023/11/05 12:27:53;;;;;;;6.77;3.53;;;;;;;;;;5065059;28;20354;-58
2023/11/05 12:30:28;;;;;;;5.93;3.37;;;;;;;;;;5060143;28;20187;-56
2023/11/05 12:32:54;;;;;;;6.33;3.20;;;;;;;;;;5055909;28;20254;-56
2023/11/05 12:35:20;;;;;;;4.60;3.13;;;;;;;;;;5059546;28;20230;-55
2023/11/05 12:37:50;;;;;;;3.67;3.03;;;;;;;;;;5058574;28;20177;-55
2023/11/05 12:40:16;;;;;;;4.60;2.70;;;;;;;;;;5058316;28;20621;-56
2023/11/05 12:42:43;;;;;;;4.00;3.03;;;;;;;;;;5065026;28;20286;-56
2023/11/05 12:45:10;;;;;;;3.67;2.97;;;;;;;;;;5058343;28;20282;-56
2023/11/05 12:47:37;;;;;;;3.47;3.00;;;;;;;;;;5057147;28;20268;-55
2023/11/05 12:50:03;;;;;;;5.93;2.80;;;;;;;;;;5059606;28;20541;-56
2023/11/05 12:52:32;;;;;;;4.63;3.30;;;;;;;;;;5062164;28;20169;-56
2023/11/05 12:54:59;;;;;;;4.20;2.90;;;;;;;;;;5062381;28;20169;-56
2023/11/05 12:57:25;;;;;;;4.27;3.37;;;;;;;;;;5060163;28;20181;-55
2023/11/05 12:59:52;;;;;;;4.97;3.60;;;;;;;;;;5061057;28;20180;-56
2023/11/05 13:02:18;;;;;;;6.53;4.17;;;;;;;;;;5063704;28;20518;-56
2023/11/05 13:04:44;;;;;;;4.77;3.67;;;;;;;;;;5059823;28;20519;-55
2023/11/05 13:07:11;;;;;;;7.47;4.83;;;;;;;;;;5060650;28;20177;-55
2023/11/05 13:09:37;;;;;;;8.20;4.20;;;;;;;;;;5059626;28;20541;-57
2023/11/05 13:12:05;;;;;;;7.10;4.37;;;;;;;;;;5057565;28;20184;-56
2023/11/05 13:14:31;;;;;;;6.40;4.57;;;;;;;;;;5053536;28;20249;-56
2023/11/05 13:16:57;;;;;;;6.30;4.70;;;;;;;;;;5057033;28;20322;-56
2023/11/05 13:19:24;;;;;;;8.07;4.67;;;;;;;;;;5060992;28;20200;-55
2023/11/05 13:21:50;;;;;;;13.53;4.80;;;;;;;;;;5064748;28;20246;-56
2023/11/05 13:24:16;;;;;;;9.20;5.27;;;;;;;;;;5059538;28;20168;-56
2023/11/05 13:26:42;;;;;;;7.60;5.00;;;;;;;;;;5063487;28;20175;-57
2023/11/05 13:29:08;;;;;;;5.10;4.60;;;;;;;;;;5061667;28;20180;-58
2023/11/05 13:31:35;;;;;;;7.30;4.97;;;;;;;;;;5059818;28;20714;-58
2023/11/05 13:34:04;;;;;;;8.47;5.57;;;;;;;;;;5038499;28;20211;-58
2023/11/05 13:36:31;;;;;;;9.10;5.93;;;;;;;;;;5044298;28;20184;-58
2023/11/05 13:38:57;;;;;;;8.07;4.90;;;;;;;;;;5042979;28;20181;-57
2023/11/05 13:41:24;;;;;;;9.50;5.87;;;;;;;;;;5044086;28;20283;-58
2023/11/05 13:43:50;;;;;;;7.83;5.57;;;;;;;;;;5041691;28;20212;-57
2023/11/05 13:46:17;;;;;;;5.93;4.60;;;;;;;;;;5042630;28;20181;-58
2023/11/05 13:48:44;;;;;;;6.93;5.20;;;;;;;;;;5041517;28;20181;-57
2023/11/05 13:51:10;;;;;;;8.47;5.73;;;;;;;;;;5041871;28;20197;-58
2023/11/05 13:53:36;;;;;;;10.20;5.07;;;;;;;;;;5042713;28;20192;-58
2023/11/05 13:56:03;;;;;;;7.10;5.07;;;;;;;;;;5042520;28;20177;-58
2023/11/05 13:58:29;;;;;;;7.23;4.80;;;;;;;;;;5038020;28;20587;-58
2023/11/05 14:00:56;;;;;;;5.80;4.77;;;;;;;;;;5043253;28;20201;-57
2023/11/05 14:03:24;;;;;;;6.20;4.50;;;;;;;;;;5038615;28;20174;-58
2023/11/05 14:05:50;;;;;;;8.87;4.70;;;;;;;;;;5039798;28;20185;-57
2023/11/05 14:08:16;;;;;;;6.97;4.77;;;;;;;;;;5037652;28;20177;-58
2023/11/05 14:10:47;;;;;;;8.40;5.93;;;;;;;;;;5043315;28;20255;-57
2023/11/05 14:13:14;;;;;;;8.73;5.60;;;;;;;;;;5041385;28;20178;-58
2023/11/05 14:15:40;;;;;;;8.73;5.60;;;;;;;;;;5045942;28;20239;-57
2023/11/05 14:18:08;;;;;;;8.00;5.40;;;;;;;;;;5040907;28;20181;-58
2023/11/05 14:20:35;;;;;;;9.63;5.80;;;;;;;;;;5043438;28;20295;-57
2023/11/05 14:23:01;;;;;;;8.27;5.00;;;;;;;;;;5041286;28;20574;-58
2023/11/05 14:25:27;;;;;;;8.30;5.93;;;;;;;;;;5046953;28;20543;-59
2023/11/05 14:27:54;;;;;;;7.53;5.63;;;;;;;;;;5046317;28;20188;-59
2023/11/05 14:30:20;;;;;;;7.90;5.43;;;;;;;;;;5042056;28;20644;-58
2023/11/05 14:32:47;;;;;;;9.30;5.90;;;;;;;;;;5053084;28;20579;-57
2023/11/05 14:35:13;;;;;;;7.77;6.03;;;;;;;;;;5058863;28;20197;-57
2023/11/05 14:37:39;;;;;;;7.07;5.63;;;;;;;;;;5059927;28;20389;-58
2023/11/05 14:40:09;;;;;;;8.70;5.33;;;;;;;;;;5065271;28;20196;-56